sensor_id;sensor_type;location;lat;lon;timestamp;pressure;altitude;pressure_sealevel;temperature;humidity
55289;BME280;41154;45.394;5.734;2022-08-19T00:00:58;96755.81;;;18.60;100.00
55289;BME280;41154;45.394;5.734;2022-08-19T00:03:24;96750.84;;;18.40;100.00
55289;BME280;41154;45.394;5.734;2022-08-19T00:05:50;96744.09;;;18.14;100.00
55289;BME280;41154;45.394;5.734;2022-08-19T00:08:15;96748.00;;;18.45;100.00
55289;BME280;41154;45.394;5.734;2022-08-19T00:10:41;96746.69;;;18.56;100.00
55289;BME280;41154;45.394;5.734;2022-08-19T00:13:07;96754.88;;;18.65;100.00
55289;BME280;41154;45.394;5.734;2022-08-19T00:15:33;96753.38;;;18.59;100.00
55289;BME280;41154;45.394;5.734;2022-08-19T00:17:58;96745.31;;;18.67;100.00
55289;BME280;41154;45.394;5.734;2022-08-19T00:20:24;96757.44;;;18.25;100.00
55289;BME280;41154;45.394;5.734;2022-08-19T00:22:51;96754.63;;;18.53;100.00
55289;BME280;41154;45.394;5.734;2022-08-19T00:25:17;96753.53;;;18.54;100.00
55289;BME280;41154;45.394;5.734;2022-08-19T00:27:43;96753.59;;;18.26;100.00
55289;BME280;41154;45.394;5.734;2022-08-19T00:30:10;96756.53;;;18.29;100.00
55289;BME280;41154;45.394;5.734;2022-08-19T00:32:36;96747.69;;;18.24;100.00
55289;BME280;41154;45.394;5.734;2022-08-19T00:35:03;96747.00;;;18.55;100.00
55289;BME280;41154;45.394;5.734;2022-08-19T00:37:29;96741.13;;;18.61;100.00
55289;BME280;41154;45.394;5.734;2022-08-19T00:39:54;96744.00;;;18.65;100.00
55289;BME280;41154;45.394;5.734;2022-08-19T00:42:22;96742.91;;;18.66;100.00
55289;BME280;41154;45.394;5.734;2022-08-19T00:44:48;96744.13;;;18.60;100.00
55289;BME280;41154;45.394;5.734;2022-08-19T00:47:14;96739.31;;;18.57;100.00
55289;BME280;41154;45.394;5.734;2022-08-19T00:49:41;96733.81;;;18.48;100.00
55289;BME280;41154;45.394;5.734;2022-08-19T00:52:18;96732.09;;;18.52;100.00
55289;BME280;41154;45.394;5.734;2022-08-19T00:54:47;96728.69;;;18.46;100.00
55289;BME280;41154;45.394;5.734;2022-08-19T00:57:16;96730.75;;;18.41;100.00
55289;BME280;41154;45.394;5.734;2022-08-19T00:59:45;96732.53;;;18.09;100.00
55289;BME280;41154;45.394;5.734;2022-08-19T01:02:12;96732.44;;;18.14;100.00
55289;BME280;41154;45.394;5.734;2022-08-19T01:04:38;96733.31;;;18.46;100.00
55289;BME280;41154;45.394;5.734;2022-08-19T01:07:04;96733.63;;;18.22;100.00
55289;BME280;41154;45.394;5.734;2022-08-19T01:09:30;96730.78;;;18.49;100.00
55289;BME280;41154;45.394;5.734;2022-08-19T01:11:56;96733.19;;;18.51;100.00
55289;BME280;41154;45.394;5.734;2022-08-19T01:14:39;96737.72;;;18.56;100.00
55289;BME280;41154;45.394;5.734;2022-08-19T01:17:07;96736.03;;;18.23;100.00
55289;BME280;41154;45.394;5.734;2022-08-19T01:19:39;96730.13;;;17.93;100.00
55289;BME280;41154;45.394;5.734;2022-08-19T01:22:30;96733.50;;;18.27;100.00
55289;BME280;41154;45.394;5.734;2022-08-19T01:24:57;96743.16;;;18.19;100.00
55289;BME280;41154;45.394;5.734;2022-08-19T01:27:23;96736.94;;;18.19;100.00
55289;BME280;41154;45.394;5.734;2022-08-19T01:29:48;96729.53;;;17.96;100.00
55289;BME280;41154;45.394;5.734;2022-08-19T01:32:16;96732.44;;;17.86;100.00
55289;BME280;41154;45.394;5.734;2022-08-19T01:34:42;96728.72;;;17.82;100.00
55289;BME280;41154;45.394;5.734;2022-08-19T01:37:14;96722.50;;;17.82;100.00
55289;BME280;41154;45.394;5.734;2022-08-19T01:39:41;96734.66;;;17.98;100.00
55289;BME280;41154;45.394;5.734;2022-08-19T01:42:09;96745.31;;;17.81;100.00
55289;BME280;41154;45.394;5.734;2022-08-19T01:44:39;96737.63;;;18.24;100.00
55289;BME280;41154;45.394;5.734;2022-08-19T01:47:06;96737.06;;;18.00;100.00
55289;BME280;41154;45.394;5.734;2022-08-19T01:49:32;96734.59;;;17.89;100.00
55289;BME280;41154;45.394;5.734;2022-08-19T01:51:59;96736.06;;;17.82;100.00
55289;BME280;41154;45.394;5.734;2022-08-19T01:54:25;96736.25;;;17.85;100.00
55289;BME280;41154;45.394;5.734;2022-08-19T01:56:53;96732.44;;;18.14;100.00
55289;BME280;41154;45.394;5.734;2022-08-19T01:59:22;96742.59;;;18.08;100.00
55289;BME280;41154;45.394;5.734;2022-08-19T02:01:49;96738.69;;;18.01;100.00
55289;BME280;41154;45.394;5.734;2022-08-19T02:04:15;96731.09;;;17.89;100.00
55289;BME280;41154;45.394;5.734;2022-08-19T02:06:41;96743.97;;;18.20;100.00
55289;BME280;41154;45.394;5.734;2022-08-19T02:09:09;96741.78;;;18.08;100.00
55289;BME280;41154;45.394;5.734;2022-08-19T02:11:36;96745.78;;;18.10;100.00
55289;BME280;41154;45.394;5.734;2022-08-19T02:14:06;96742.91;;;18.07;100.00
55289;BME280;41154;45.394;5.734;2022-08-19T02:16:32;96735.38;;;17.90;100.00
55289;BME280;41154;45.394;5.734;2022-08-19T02:18:58;96735.47;;;17.85;100.00
55289;BME280;41154;45.394;5.734;2022-08-19T02:21:26;96731.56;;;17.91;100.00
55289;BME280;41154;45.394;5.734;2022-08-19T02:23:52;96731.97;;;17.70;100.00
55289;BME280;41154;45.394;5.734;2022-08-19T02:26:18;96728.72;;;17.82;100.00
55289;BME280;41154;45.394;5.734;2022-08-19T02:28:44;96730.78;;;17.90;100.00
55289;BME280;41154;45.394;5.734;2022-08-19T02:31:16;96742.41;;;17.63;100.00
55289;BME280;41154;45.394;5.734;2022-08-19T02:33:43;96741.03;;;17.66;100.00
55289;BME280;41154;45.394;5.734;2022-08-19T02:36:11;96738.00;;;17.67;100.00
55289;BME280;41154;45.394;5.734;2022-08-19T02:38:38;96736.09;;;17.68;100.00
55289;BME280;41154;45.394;5.734;2022-08-19T02:41:10;96742.72;;;17.48;100.00
55289;BME280;41154;45.394;5.734;2022-08-19T02:43:37;96752.53;;;17.43;100.00
55289;BME280;41154;45.394;5.734;2022-08-19T02:46:22;96754.75;;;17.41;100.00
55289;BME280;41154;45.394;5.734;2022-08-19T02:48:53;96763.09;;;17.45;100.00
55289;BME280;41154;45.394;5.734;2022-08-19T02:51:33;96767.25;;;17.70;100.00
55289;BME280;41154;45.394;5.734;2022-08-19T02:54:00;96768.03;;;17.85;100.00
55289;BME280;41154;45.394;5.734;2022-08-19T02:56:26;96773.88;;;17.64;100.00
55289;BME280;41154;45.394;5.734;2022-08-19T02:58:54;96776.34;;;17.74;100.00
55289;BME280;41154;45.394;5.734;2022-08-19T03:01:25;96779.88;;;17.61;100.00
55289;BME280;41154;45.394;5.734;2022-08-19T03:03:53;96786.41;;;17.74;100.00
55289;BME280;41154;45.394;5.734;2022-08-19T03:06:19;96786.13;;;17.75;100.00
55289;BME280;41154;45.394;5.734;2022-08-19T03:08:47;96790.53;;;17.57;100.00
55289;BME280;41154;45.394;5.734;2022-08-19T03:11:19;96784.91;;;17.68;100.00
55289;BME280;41154;45.394;5.734;2022-08-19T03:13:45;96797.88;;;17.85;100.00
55289;BME280;41154;45.394;5.734;2022-08-19T03:16:12;96797.78;;;17.90;100.00
55289;BME280;41154;45.394;5.734;2022-08-19T03:18:38;96797.38;;;17.83;100.00
55289;BME280;41154;45.394;5.734;2022-08-19T03:21:06;96791.06;;;17.87;100.00
55289;BME280;41154;45.394;5.734;2022-08-19T03:23:32;96796.69;;;17.91;100.00
55289;BME280;41154;45.394;5.734;2022-08-19T03:25:58;96805.59;;;17.77;100.00
55289;BME280;41154;45.394;5.734;2022-08-19T03:28:24;96798.38;;;18.01;100.00
55289;BME280;41154;45.394;5.734;2022-08-19T03:31:00;96800.28;;;17.86;100.00
55289;BME280;41154;45.394;5.734;2022-08-19T03:33:28;96803.78;;;17.73;100.00
55289;BME280;41154;45.394;5.734;2022-08-19T03:38:26;96808.75;;;17.99;100.00
55289;BME280;41154;45.394;5.734;2022-08-19T03:40:52;96811.34;;;17.90;100.00
55289;BME280;41154;45.394;5.734;2022-08-19T03:43:18;96807.06;;;17.89;100.00
55289;BME280;41154;45.394;5.734;2022-08-19T03:45:44;96804.31;;;17.75;100.00
55289;BME280;41154;45.394;5.734;2022-08-19T03:48:10;96803.69;;;17.64;100.00
55289;BME280;41154;45.394;5.734;2022-08-19T03:50:39;96807.69;;;17.53;100.00
55289;BME280;41154;45.394;5.734;2022-08-19T03:53:05;96805.28;;;17.51;100.00
55289;BME280;41154;45.394;5.734;2022-08-19T03:55:31;96811.22;;;17.53;100.00
55289;BME280;41154;45.394;5.734;2022-08-19T03:57:57;96810.69;;;17.51;100.00
55289;BME280;41154;45.394;5.734;2022-08-19T04:00:23;96822.06;;;17.53;100.00
55289;BME280;41154;45.394;5.734;2022-08-19T04:02:49;96827.16;;;17.41;100.00
55289;BME280;41154;45.394;5.734;2022-08-19T04:05:15;96827.28;;;17.36;100.00
55289;BME280;41154;45.394;5.734;2022-08-19T04:07:41;96826.66;;;17.39;100.00
55289;BME280;41154;45.394;5.734;2022-08-19T04:10:07;96818.34;;;17.49;100.00
55289;BME280;41154;45.394;5.734;2022-08-19T04:12:33;96818.84;;;17.51;100.00
55289;BME280;41154;45.394;5.734;2022-08-19T04:14:58;96827.91;;;17.74;100.00
55289;BME280;41154;45.394;5.734;2022-08-19T04:17:24;96833.78;;;17.95;100.00
55289;BME280;41154;45.394;5.734;2022-08-19T04:19:51;96838.97;;;17.64;100.00
55289;BME280;41154;45.394;5.734;2022-08-19T04:22:16;96843.34;;;17.46;100.00
55289;BME280;41154;45.394;5.734;2022-08-19T04:24:43;96837.44;;;17.44;100.00
55289;BME280;41154;45.394;5.734;2022-08-19T04:27:09;96839.09;;;17.40;100.00
55289;BME280;41154;45.394;5.734;2022-08-19T04:29:35;96843.34;;;17.46;100.00
55289;BME280;41154;45.394;5.734;2022-08-19T04:32:01;96849.94;;;17.40;100.00
55289;BME280;41154;45.394;5.734;2022-08-19T04:34:28;96848.75;;;17.46;100.00
55289;BME280;41154;45.394;5.734;2022-08-19T04:36:56;96844.63;;;17.35;100.00
55289;BME280;41154;45.394;5.734;2022-08-19T04:39:27;96843.34;;;17.46;100.00
55289;BME280;41154;45.394;5.734;2022-08-19T04:42:14;96854.38;;;17.36;100.00
55289;BME280;41154;45.394;5.734;2022-08-19T04:44:59;96848.22;;;17.30;100.00
55289;BME280;41154;45.394;5.734;2022-08-19T04:47:25;96845.63;;;17.39;100.00
55289;BME280;41154;45.394;5.734;2022-08-19T04:49:50;96852.66;;;17.40;100.00
55289;BME280;41154;45.394;5.734;2022-08-19T04:52:16;96855.81;;;17.47;100.00
55289;BME280;41154;45.394;5.734;2022-08-19T04:54:42;96856.47;;;17.86;100.00
55289;BME280;41154;45.394;5.734;2022-08-19T04:57:08;96856.59;;;17.94;100.00
55289;BME280;41154;45.394;5.734;2022-08-19T04:59:36;96858.88;;;17.73;100.00
55289;BME280;41154;45.394;5.734;2022-08-19T05:02:03;96860.44;;;17.60;100.00
55289;BME280;41154;45.394;5.734;2022-08-19T05:04:30;96859.50;;;17.51;100.00
55289;BME280;41154;45.394;5.734;2022-08-19T05:06:57;96855.88;;;17.42;100.00
55289;BME280;41154;45.394;5.734;2022-08-19T05:09:22;96866.22;;;17.40;100.00
55289;BME280;41154;45.394;5.734;2022-08-19T05:11:48;96864.66;;;17.67;100.00
55289;BME280;41154;45.394;5.734;2022-08-19T05:14:16;96873.34;;;17.69;100.00
55289;BME280;41154;45.394;5.734;2022-08-19T05:16:42;96869.88;;;17.49;100.00
55289;BME280;41154;45.394;5.734;2022-08-19T05:19:08;96880.50;;;17.46;100.00
55289;BME280;41154;45.394;5.734;2022-08-19T05:22:03;96882.09;;;17.47;100.00
55289;BME280;41154;45.394;5.734;2022-08-19T05:24:47;96882.34;;;17.50;100.00
55289;BME280;41154;45.394;5.734;2022-08-19T05:27:13;96890.97;;;17.52;100.00
55289;BME280;41154;45.394;5.734;2022-08-19T05:29:39;96880.72;;;17.49;100.00
55289;BME280;41154;45.394;5.734;2022-08-19T05:32:05;96893.19;;;17.50;100.00
55289;BME280;41154;45.394;5.734;2022-08-19T05:34:34;96888.94;;;17.44;100.00
55289;BME280;41154;45.394;5.734;2022-08-19T05:37:01;96896.97;;;17.49;100.00
55289;BME280;41154;45.394;5.734;2022-08-19T05:39:30;96899.72;;;17.63;100.00
55289;BME280;41154;45.394;5.734;2022-08-19T05:42:00;96909.44;;;17.50;100.00
55289;BME280;41154;45.394;5.734;2022-08-19T05:44:28;96903.13;;;17.55;100.00
55289;BME280;41154;45.394;5.734;2022-08-19T05:46:59;96902.41;;;17.49;100.00
55289;BME280;41154;45.394;5.734;2022-08-19T05:49:27;96906.75;;;17.50;100.00
55289;BME280;41154;45.394;5.734;2022-08-19T05:51:53;96909.09;;;17.71;100.00
55289;BME280;41154;45.394;5.734;2022-08-19T05:54:22;96909.97;;;17.99;100.00
55289;BME280;41154;45.394;5.734;2022-08-19T05:56:52;96907.97;;;18.05;100.00
55289;BME280;41154;45.394;5.734;2022-08-19T05:59:19;96916.41;;;18.17;100.00
55289;BME280;41154;45.394;5.734;2022-08-19T06:01:49;96923.84;;;18.11;100.00
55289;BME280;41154;45.394;5.734;2022-08-19T06:04:20;96924.94;;;17.96;100.00
55289;BME280;41154;45.394;5.734;2022-08-19T06:06:47;96927.31;;;17.84;100.00
55289;BME280;41154;45.394;5.734;2022-08-19T06:09:13;96936.31;;;18.12;100.00
55289;BME280;41154;45.394;5.734;2022-08-19T06:11:45;96941.53;;;18.09;100.00
55289;BME280;41154;45.394;5.734;2022-08-19T06:14:15;96939.47;;;17.87;100.00
55289;BME280;41154;45.394;5.734;2022-08-19T06:16:42;96942.94;;;18.06;100.00
55289;BME280;41154;45.394;5.734;2022-08-19T06:19:12;96946.91;;;17.81;100.00
55289;BME280;41154;45.394;5.734;2022-08-19T06:21:40;96953.78;;;17.92;100.00
55289;BME280;41154;45.394;5.734;2022-08-19T06:24:08;96955.09;;;18.09;100.00
55289;BME280;41154;45.394;5.734;2022-08-19T06:26:36;96946.94;;;17.95;100.00
55289;BME280;41154;45.394;5.734;2022-08-19T06:29:04;96961.84;;;18.11;100.00
55289;BME280;41154;45.394;5.734;2022-08-19T06:31:33;96962.47;;;18.22;100.00
55289;BME280;41154;45.394;5.734;2022-08-19T06:34:01;96967.59;;;18.24;100.00
55289;BME280;41154;45.394;5.734;2022-08-19T06:36:41;96969.72;;;18.27;100.00
55289;BME280;41154;45.394;5.734;2022-08-19T06:39:17;96971.81;;;18.16;100.00
55289;BME280;41154;45.394;5.734;2022-08-19T06:41:47;96971.22;;;18.19;100.00
55289;BME280;41154;45.394;5.734;2022-08-19T06:44:17;96979.66;;;18.18;100.00
55289;BME280;41154;45.394;5.734;2022-08-19T06:46:44;96979.06;;;18.21;100.00
55289;BME280;41154;45.394;5.734;2022-08-19T06:49:10;96980.16;;;18.33;100.00
55289;BME280;41154;45.394;5.734;2022-08-19T06:51:41;96973.53;;;18.40;100.00
55289;BME280;41154;45.394;5.734;2022-08-19T06:54:09;96967.72;;;18.32;100.00
55289;BME280;41154;45.394;5.734;2022-08-19T06:56:36;96984.19;;;18.22;100.00
55289;BME280;41154;45.394;5.734;2022-08-19T06:59:29;96986.31;;;18.25;100.00
55289;BME280;41154;45.394;5.734;2022-08-19T07:02:00;96987.47;;;18.05;100.00
55289;BME280;41154;45.394;5.734;2022-08-19T07:04:29;96984.72;;;17.91;100.00
55289;BME280;41154;45.394;5.734;2022-08-19T07:07:05;96984.34;;;17.98;100.00
55289;BME280;41154;45.394;5.734;2022-08-19T07:09:39;96981.59;;;18.31;100.00
55289;BME280;41154;45.394;5.734;2022-08-19T07:12:08;96987.53;;;18.47;100.00
55289;BME280;41154;45.394;5.734;2022-08-19T07:14:35;96989.72;;;18.45;100.00
55289;BME280;41154;45.394;5.734;2022-08-19T07:17:04;96994.78;;;18.65;100.00
55289;BME280;41154;45.394;5.734;2022-08-19T07:19:31;96999.59;;;18.82;100.00
55289;BME280;41154;45.394;5.734;2022-08-19T07:22:00;96989.13;;;18.62;100.00
55289;BME280;41154;45.394;5.734;2022-08-19T07:24:27;96982.59;;;18.49;100.00
55289;BME280;41154;45.394;5.734;2022-08-19T07:26:55;96998.09;;;18.35;100.00
55289;BME280;41154;45.394;5.734;2022-08-19T07:29:32;96995.69;;;18.47;100.00
55289;BME280;41154;45.394;5.734;2022-08-19T07:32:00;96988.44;;;18.56;100.00
55289;BME280;41154;45.394;5.734;2022-08-19T07:34:27;96986.63;;;18.52;100.00
55289;BME280;41154;45.394;5.734;2022-08-19T07:36:54;96982.91;;;18.61;100.00
55289;BME280;41154;45.394;5.734;2022-08-19T07:39:24;96987.53;;;18.61;100.00
55289;BME280;41154;45.394;5.734;2022-08-19T07:41:51;96993.16;;;18.92;100.00
55289;BME280;41154;45.394;5.734;2022-08-19T07:44:18;96995.78;;;18.97;100.00
55289;BME280;41154;45.394;5.734;2022-08-19T07:46:47;97003.44;;;18.95;100.00
55289;BME280;41154;45.394;5.734;2022-08-19T07:49:15;96999.09;;;18.94;100.00
55289;BME280;41154;45.394;5.734;2022-08-19T07:51:54;97003.31;;;19.00;100.00
55289;BME280;41154;45.394;5.734;2022-08-19T07:54:23;97005.78;;;19.25;100.00
55289;BME280;41154;45.394;5.734;2022-08-19T07:56:49;97012.28;;;19.97;100.00
55289;BME280;41154;45.394;5.734;2022-08-19T07:59:17;97019.78;;;20.22;100.00
55289;BME280;41154;45.394;5.734;2022-08-19T08:01:44;97018.44;;;19.66;100.00
55289;BME280;41154;45.394;5.734;2022-08-19T08:04:10;97023.72;;;19.85;100.00
55289;BME280;41154;45.394;5.734;2022-08-19T08:06:54;97030.25;;;20.60;100.00
55289;BME280;41154;45.394;5.734;2022-08-19T08:09:41;97027.31;;;20.57;100.00
55289;BME280;41154;45.394;5.734;2022-08-19T08:12:14;97027.97;;;20.54;100.00
55289;BME280;41154;45.394;5.734;2022-08-19T08:14:48;97041.59;;;20.85;100.00
55289;BME280;41154;45.394;5.734;2022-08-19T08:17:16;97044.81;;;20.87;100.00
55289;BME280;41154;45.394;5.734;2022-08-19T08:19:44;97046.66;;;19.84;100.00
55289;BME280;41154;45.394;5.734;2022-08-19T08:22:11;97045.13;;;19.41;100.00
55289;BME280;41154;45.394;5.734;2022-08-19T08:25:07;97056.84;;;19.28;100.00
55289;BME280;41154;45.394;5.734;2022-08-19T08:27:37;97045.97;;;19.28;100.00
55289;BME280;41154;45.394;5.734;2022-08-19T08:30:14;97046.44;;;19.44;100.00
55289;BME280;41154;45.394;5.734;2022-08-19T08:32:40;97055.94;;;19.32;100.00
55289;BME280;41154;45.394;5.734;2022-08-19T08:35:10;97051.44;;;19.50;100.00
55289;BME280;41154;45.394;5.734;2022-08-19T08:37:36;97050.47;;;19.46;100.00
55289;BME280;41154;45.394;5.734;2022-08-19T08:40:05;97055.44;;;19.16;100.00
55289;BME280;41154;45.394;5.734;2022-08-19T08:42:36;97055.75;;;18.73;100.00
55289;BME280;41154;45.394;5.734;2022-08-19T08:45:14;97070.38;;;18.91;100.00
55289;BME280;41154;45.394;5.734;2022-08-19T08:47:44;97058.06;;;19.21;100.00
55289;BME280;41154;45.394;5.734;2022-08-19T08:50:23;97068.13;;;19.71;100.00
55289;BME280;41154;45.394;5.734;2022-08-19T08:52:53;97058.94;;;19.81;100.00
55289;BME280;41154;45.394;5.734;2022-08-19T08:55:24;97072.25;;;19.83;100.00
55289;BME280;41154;45.394;5.734;2022-08-19T08:57:52;97068.06;;;19.49;100.00
55289;BME280;41154;45.394;5.734;2022-08-19T09:00:30;97078.09;;;19.12;100.00
55289;BME280;41154;45.394;5.734;2022-08-19T09:02:58;97074.91;;;19.10;100.00
55289;BME280;41154;45.394;5.734;2022-08-19T09:05:45;97078.41;;;18.82;100.00
55289;BME280;41154;45.394;5.734;2022-08-19T09:08:22;97087.09;;;18.84;100.00
55289;BME280;41154;45.394;5.734;2022-08-19T09:10:55;97094.41;;;18.70;100.00
55289;BME280;41154;45.394;5.734;2022-08-19T09:16:10;97085.88;;;19.32;100.00
55289;BME280;41154;45.394;5.734;2022-08-19T09:18:44;97081.66;;;18.84;100.00
55289;BME280;41154;45.394;5.734;2022-08-19T09:21:14;97078.41;;;19.10;100.00
55289;BME280;41154;45.394;5.734;2022-08-19T09:23:40;97085.84;;;19.46;100.00
55289;BME280;41154;45.394;5.734;2022-08-19T09:26:08;97077.25;;;19.75;100.00
55289;BME280;41154;45.394;5.734;2022-08-19T09:28:34;97078.81;;;20.04;100.00
55289;BME280;41154;45.394;5.734;2022-08-19T09:31:00;97091.44;;;20.00;100.00
55289;BME280;41154;45.394;5.734;2022-08-19T09:33:26;97089.19;;;19.80;100.00
55289;BME280;41154;45.394;5.734;2022-08-19T09:36:04;97092.53;;;19.63;100.00
55289;BME280;41154;45.394;5.734;2022-08-19T09:38:31;97091.84;;;19.57;100.00
55289;BME280;41154;45.394;5.734;2022-08-19T09:41:05;97086.91;;;19.59;100.00
55289;BME280;41154;45.394;5.734;2022-08-19T09:43:32;97096.44;;;19.70;100.00
55289;BME280;41154;45.394;5.734;2022-08-19T09:46:05;97092.00;;;19.24;100.00
55289;BME280;41154;45.394;5.734;2022-08-19T09:48:32;97104.75;;;19.51;100.00
55289;BME280;41154;45.394;5.734;2022-08-19T09:51:12;97097.06;;;19.67;100.00
55289;BME280;41154;45.394;5.734;2022-08-19T09:53:44;97097.66;;;19.64;100.00
55289;BME280;41154;45.394;5.734;2022-08-19T09:56:12;97097.63;;;19.92;100.00
55289;BME280;41154;45.394;5.734;2022-08-19T09:58:39;97100.53;;;19.45;100.00
55289;BME280;41154;45.394;5.734;2022-08-19T10:01:07;97100.97;;;19.75;100.00
55289;BME280;41154;45.394;5.734;2022-08-19T10:03:35;97103.44;;;19.49;100.00
55289;BME280;41154;45.394;5.734;2022-08-19T10:06:04;97101.59;;;19.08;100.00
55289;BME280;41154;45.394;5.734;2022-08-19T10:08:34;97109.81;;;19.16;100.00
55289;BME280;41154;45.394;5.734;2022-08-19T10:11:00;97102.47;;;19.45;100.00
55289;BME280;41154;45.394;5.734;2022-08-19T10:13:29;97110.66;;;19.17;100.00
55289;BME280;41154;45.394;5.734;2022-08-19T10:16:02;97099.53;;;19.27;100.00
55289;BME280;41154;45.394;5.734;2022-08-19T10:18:29;97108.22;;;19.29;100.00
55289;BME280;41154;45.394;5.734;2022-08-19T10:23:30;97110.34;;;18.91;100.00
55289;BME280;41154;45.394;5.734;2022-08-19T10:25:59;97107.63;;;19.04;100.00
55289;BME280;41154;45.394;5.734;2022-08-19T10:28:25;97111.44;;;19.31;100.00
55289;BME280;41154;45.394;5.734;2022-08-19T10:30:51;97119.47;;;19.50;100.00
55289;BME280;41154;45.394;5.734;2022-08-19T10:33:16;97119.47;;;19.50;100.00
55289;BME280;41154;45.394;5.734;2022-08-19T10:35:42;97120.31;;;19.09;100.00
55289;BME280;41154;45.394;5.734;2022-08-19T10:38:08;97113.06;;;19.32;100.00
55289;BME280;41154;45.394;5.734;2022-08-19T10:40:34;97117.09;;;18.93;100.00
55289;BME280;41154;45.394;5.734;2022-08-19T10:43:00;97128.19;;;19.11;100.00
55289;BME280;41154;45.394;5.734;2022-08-19T10:45:25;97115.88;;;18.99;100.00
55289;BME280;41154;45.394;5.734;2022-08-19T10:47:55;97128.78;;;18.94;100.00
55289;BME280;41154;45.394;5.734;2022-08-19T10:50:21;97130.53;;;18.71;100.00
55289;BME280;41154;45.394;5.734;2022-08-19T10:53:07;97127.41;;;18.77;100.00
55289;BME280;41154;45.394;5.734;2022-08-19T10:55:36;97135.19;;;18.84;100.00
55289;BME280;41154;45.394;5.734;2022-08-19T10:58:23;97130.03;;;18.82;100.00
55289;BME280;41154;45.394;5.734;2022-08-19T11:00:52;97122.94;;;19.00;100.00
55289;BME280;41154;45.394;5.734;2022-08-19T11:03:19;97131.78;;;19.48;100.00
55289;BME280;41154;45.394;5.734;2022-08-19T11:05:44;97131.81;;;20.07;100.00
55289;BME280;41154;45.394;5.734;2022-08-19T11:08:10;97132.16;;;20.28;100.00
55289;BME280;41154;45.394;5.734;2022-08-19T11:10:41;97131.41;;;20.36;100.00
55289;BME280;41154;45.394;5.734;2022-08-19T11:13:08;97131.41;;;20.59;100.00
55289;BME280;41154;45.394;5.734;2022-08-19T11:15:33;97135.25;;;20.35;100.00
55289;BME280;41154;45.394;5.734;2022-08-19T11:17:59;97132.09;;;20.42;100.00
55289;BME280;41154;45.394;5.734;2022-08-19T11:20:25;97137.97;;;20.13;100.00
55289;BME280;41154;45.394;5.734;2022-08-19T11:22:52;97133.00;;;20.15;100.00
55289;BME280;41154;45.394;5.734;2022-08-19T11:25:19;97136.00;;;20.04;100.00
55289;BME280;41154;45.394;5.734;2022-08-19T11:27:45;97131.03;;;20.06;100.00
55289;BME280;41154;45.394;5.734;2022-08-19T11:30:12;97130.47;;;20.41;100.00
55289;BME280;41154;45.394;5.734;2022-08-19T11:32:39;97138.09;;;20.53;100.00
55289;BME280;41154;45.394;5.734;2022-08-19T11:35:05;97142.94;;;20.87;100.00
55289;BME280;41154;45.394;5.734;2022-08-19T11:37:31;97137.25;;;20.97;100.00
55289;BME280;41154;45.394;5.734;2022-08-19T11:40:05;97136.00;;;21.70;100.00
55289;BME280;41154;45.394;5.734;2022-08-19T11:42:30;97141.59;;;21.56;100.00
55289;BME280;41154;45.394;5.734;2022-08-19T11:45:15;97136.63;;;21.49;100.00
55289;BME280;41154;45.394;5.734;2022-08-19T11:47:40;97129.09;;;21.81;100.00
55289;BME280;41154;45.394;5.734;2022-08-19T11:50:07;97126.88;;;22.36;100.00
55289;BME280;41154;45.394;5.734;2022-08-19T11:52:33;97134.09;;;23.44;100.00
55289;BME280;41154;45.394;5.734;2022-08-19T11:54:58;97135.31;;;23.25;100.00
55289;BME280;41154;45.394;5.734;2022-08-19T11:57:24;97127.81;;;23.43;100.00
55289;BME280;41154;45.394;5.734;2022-08-19T11:59:51;97123.31;;;23.09;100.00
55289;BME280;41154;45.394;5.734;2022-08-19T12:02:18;97132.34;;;23.01;100.00
55289;BME280;41154;45.394;5.734;2022-08-19T12:04:44;97121.81;;;23.20;100.00
55289;BME280;41154;45.394;5.734;2022-08-19T12:07:10;97115.78;;;23.65;100.00
55289;BME280;41154;45.394;5.734;2022-08-19T12:09:36;97122.97;;;23.10;100.00
55289;BME280;41154;45.394;5.734;2022-08-19T12:12:05;97114.94;;;23.14;100.00
55289;BME280;41154;45.394;5.734;2022-08-19T12:14:31;97112.88;;;22.93;100.00
55289;BME280;41154;45.394;5.734;2022-08-19T12:16:57;97116.25;;;22.52;100.00
55289;BME280;41154;45.394;5.734;2022-08-19T12:19:24;97113.66;;;22.64;100.00
55289;BME280;41154;45.394;5.734;2022-08-19T12:21:51;97112.25;;;22.05;100.00
55289;BME280;41154;45.394;5.734;2022-08-19T12:24:18;97111.75;;;21.60;100.00
55289;BME280;41154;45.394;5.734;2022-08-19T12:26:49;97119.16;;;21.68;100.00
55289;BME280;41154;45.394;5.734;2022-08-19T12:29:15;97124.91;;;21.49;100.00
55289;BME280;41154;45.394;5.734;2022-08-19T12:31:41;97132.69;;;20.84;100.00
55289;BME280;41154;45.394;5.734;2022-08-19T12:34:06;97131.94;;;19.65;100.00
55289;BME280;41154;45.394;5.734;2022-08-19T12:36:33;97145.69;;;18.91;100.00
55289;BME280;41154;45.394;5.734;2022-08-19T12:38:59;97136.16;;;18.74;100.00
55289;BME280;41154;45.394;5.734;2022-08-19T12:41:25;97148.44;;;18.72;100.00
55289;BME280;41154;45.394;5.734;2022-08-19T12:43:51;97157.88;;;18.74;100.00
55289;BME280;41154;45.394;5.734;2022-08-19T12:46:18;97156.09;;;18.83;100.00
55289;BME280;41154;45.394;5.734;2022-08-19T12:48:45;97158.19;;;18.92;100.00
55289;BME280;41154;45.394;5.734;2022-08-19T12:51:14;97157.69;;;19.17;100.00
55289;BME280;41154;45.394;5.734;2022-08-19T12:53:41;97162.78;;;19.61;100.00
55289;BME280;41154;45.394;5.734;2022-08-19T12:56:09;97165.56;;;19.97;100.00
55289;BME280;41154;45.394;5.734;2022-08-19T12:58:36;97174.41;;;20.03;100.00
55289;BME280;41154;45.394;5.734;2022-08-19T13:01:10;97175.22;;;20.03;100.00
55289;BME280;41154;45.394;5.734;2022-08-19T13:03:37;97171.47;;;19.21;100.00
55289;BME280;41154;45.394;5.734;2022-08-19T13:06:03;97174.59;;;19.28;100.00